Terminal Aerodrome Forecast
Issued by NWS

Home | Current Version | Previous Version | Text Only | Print | Product List | Glossary On
Versions: 1 2 3 4 5 6 7 8 9 10 11 12
204
FTUS46 KMFR 171145
TAFOTH
TAF
KOTH 171145Z 1712/1812 15006KT P6SM -RA SCT030 OVC050 WS020/20035KT
     FM171500 16012KT P6SM SCT050 BKN200 WS020/20045KT
     FM171900 19020G30KT P6SM SCT035 BKN150
     FM172300 20018G28KT P6SM -RA BKN025 OVC040
     FM180600 21015G22KT P6SM -SHRA OVC025=

USA.gov is the U.S. government's official web portal to all federal, state and local government web resources and services.